PIE weather

St Petersburg Clearwater International Airport
St Petersburg-Clearwater, Florida, United States

Public forecast

Using degrees Fahrenheit for public forecast. Weather courtesy of forecast.io.

Current aviation weather report (METAR) for St Petersburg Clearwater International Airport

Retrieved 2020/03/30 07:53 UTC (2 hours ago):

KPIE 300753Z AUTO 00000KT 10SM CLR 22/19 A3011 RMK AO2 SLP194 T02170194

Aviation forecast (TAF) for St Petersburg Clearwater International Airport

Retrieved 2020/03/30 06:22 UTC (3 hours ago):

TAF KPIE 300520Z 3006/3106 VRB03KT P6SM FEW250 FM300900 VRB03KT 6SM BR FEW010 SCT020 FM301300 10005KT P6SM SCT020 BKN250 FM301800 26007KT P6SM FEW035 SCT250 FM310200 VRB03KT P6SM SCT250